Terminal Aerodrome Forecast
Issued by NWS

Home | Current Version | Previous Version | Text Only | Print | Product List | Glossary On
Versions: 1 2 3 4 5 6 7 8 9 10 11 12 13 14 15 16 17
000
FTUS43 KTOP 231100
TAFFOE
TAF
KFOE 231126Z 2312/2412 14005KT P6SM SCT150
     FM231600 17012G19KT P6SM SCT120 BKN200
     FM240300 16009KT P6SM VCSH BKN080=

USA.gov is the U.S. government's official web portal to all federal, state and local government web resources and services.